This is the latest recevied weather packets stored in our database for station/object Kirchdorf. If no packets are shown the sender has not sent any weather packets the latest 10 day(s).
| Time | Temp. | Humidity | Pressure | Rain* | Wind** | Luminosity | Snow |
|---|---|---|---|---|---|---|---|
| 1787470329 | 15° C | 85% | 1023.3 hPa | 0 mm | - | - | - |
| 1787468530 | 12.78° C | 93% | 1023.4 hPa | 0 mm | - | - | - |
| 1787466729 | 11.11° C | 98% | 1023.2 hPa | 0 mm | - | - | - |
| 1787464929 | 10.56° C | 98% | 1023.2 hPa | 0 mm | - | - | - |
| 1787463130 | 9.44° C | 98% | 1022.9 hPa | 0 mm | - | - | - |
| 1787461330 | 8.33° C | 97% | 1022.8 hPa | 0 mm | - | - | - |
| 1787459529 | 8.33° C | 97% | 1022.6 hPa | 0 mm | - | - | - |
| 1787457729 | 8.89° C | 97% | 1022.3 hPa | 0 mm | - | - | - |
| 1787455929 | 8.89° C | 97% | 1022.2 hPa | 0 mm | - | - | - |
| 1787454129 | 9.44° C | 97% | 1022.4 hPa | 0 mm | - | - | - |
| 1787452329 | 9.44° C | 97% | 1022.3 hPa | 0 mm | - | - | - |
| 1787450529 | 10° C | 96% | 1022.4 hPa | 0 mm | - | - | - |
| 1787448729 | 10° C | 96% | 1022.5 hPa | 0 mm | - | - | - |
| 1787446929 | 10.56° C | 96% | 1022.6 hPa | 0 mm | - | - | - |
| 1787445130 | 10.56° C | 96% | 1022.5 hPa | 0 mm | - | - | - |
| 1787443330 | 10.56° C | 96% | 1022.6 hPa | 0 mm | - | - | - |
| 1787441530 | 11.11° C | 95% | 1022.8 hPa | 0 mm | - | - | - |
| 1787439730 | 11.67° C | 94% | 1022.8 hPa | 0 mm | - | - | - |
| 1787437930 | 11.67° C | 94% | 1022.9 hPa | 0 mm | - | - | - |
| 1787434330 | 12.78° C | 94% | 1022.8 hPa | 6.1 mm | - | - | - |
| 1787432530 | 13.33° C | 93% | 1022.7 hPa | 6.1 mm | - | - | - |
| 1787430730 | 13.89° C | 92% | 1022.5 hPa | 6.1 mm | - | - | - |
| 1787428930 | 13.89° C | 92% | 1022.5 hPa | 6.1 mm | - | - | - |
| 1787427130 | 13.33° C | 90% | 1022.1 hPa | 6.1 mm | - | - | - |
| 1787425330 | 14.44° C | 87% | 1021.6 hPa | 6.1 mm | - | - | - |
* Rain since midnight (hover to see other rain measurements)
** Current wind speed in m/s (hover to see current wind gust speed)